TimeEST,TemperatureF,Dew PointF,Humidity,Sea Level PressureIn,VisibilityMPH,Wind Direction,Wind SpeedMPH,Gust SpeedMPH,PrecipitationIn,Events,Conditions,WindDirDegrees,DateUTC
12:14 AM,7.9,3.9,84,30.06,10.0,Calm,Calm,-,N/A,,Overcast,0,2014-02-13 05:14:00
12:34 AM,8.8,4.8,84,30.06,10.0,Calm,Calm,-,N/A,,Overcast,0,2014-02-13 05:34:00
12:54 AM,10.0,6.1,84,30.06,10.0,Calm,Calm,-,N/A,,Overcast,0,2014-02-13 05:54:00
1:14 AM,10.8,7.2,85,30.05,10.0,Calm,Calm,-,N/A,,Overcast,0,2014-02-13 06:14:00
1:34 AM,11.8,8.2,85,30.05,10.0,Calm,Calm,-,N/A,,Overcast,0,2014-02-13 06:34:00
1:54 AM,12.4,8.6,85,30.05,10.0,Calm,Calm,-,N/A,,Overcast,0,2014-02-13 06:54:00
2:14 AM,12.7,8.6,84,30.05,10.0,Calm,Calm,-,N/A,,Overcast,0,2014-02-13 07:14:00
2:34 AM,13.1,9.3,85,30.04,10.0,Calm,Calm,-,N/A,,Overcast,0,2014-02-13 07:34:00
2:55 AM,13.5,9.5,84,30.03,10.0,Calm,Calm,-,N/A,,Overcast,0,2014-02-13 07:55:00
3:14 AM,14.0,10.0,84,30.03,10.0,Calm,Calm,-,N/A,,Overcast,0,2014-02-13 08:14:00
3:34 AM,14.5,10.6,84,30.03,10.0,Calm,Calm,-,N/A,,Overcast,0,2014-02-13 08:34:00
3:54 AM,15.3,10.2,80,30.02,10.0,Calm,Calm,-,N/A,,Overcast,0,2014-02-13 08:54:00
4:14 AM,14.9,10.0,81,30.01,10.0,Calm,Calm,-,N/A,,Overcast,0,2014-02-13 09:14:00
4:34 AM,15.4,10.4,80,30.00,10.0,Calm,Calm,-,N/A,,Overcast,0,2014-02-13 09:34:00
4:54 AM,15.4,10.6,81,30.00,10.0,Calm,Calm,-,N/A,,Overcast,0,2014-02-13 09:54:00
5:14 AM,15.6,10.8,81,29.99,10.0,Calm,Calm,-,N/A,,Overcast,0,2014-02-13 10:14:00
5:34 AM,15.8,10.4,79,29.99,10.0,Calm,Calm,-,N/A,,Overcast,0,2014-02-13 10:34:00
5:54 AM,16.3,10.9,79,30.00,10.0,WNW,3.5,-,N/A,,Overcast,300,2014-02-13 10:54:00
6:14 AM,16.5,10.4,77,30.01,10.0,NNW,4.6,-,N/A,,Overcast,330,2014-02-13 11:14:00
6:34 AM,17.1,10.4,75,30.00,10.0,NNW,3.5,-,N/A,,Overcast,340,2014-02-13 11:34:00
6:54 AM,17.4,10.6,75,30.00,10.0,NNW,4.6,-,N/A,,Overcast,340,2014-02-13 11:54:00
7:14 AM,17.4,11.1,76,30.00,10.0,Calm,Calm,-,N/A,,Overcast,0,2014-02-13 12:14:00
7:34 AM,17.4,10.4,74,29.99,10.0,Calm,Calm,-,N/A,,Overcast,0,2014-02-13 12:34:00
7:54 AM,17.6,11.3,76,29.98,10.0,Calm,Calm,-,N/A,,Overcast,0,2014-02-13 12:54:00
8:14 AM,17.4,12.6,81,29.98,10.0,Calm,Calm,-,N/A,,Overcast,0,2014-02-13 13:14:00
8:34 AM,17.4,11.7,78,29.97,10.0,Calm,Calm,-,N/A,,Overcast,0,2014-02-13 13:34:00
8:54 AM,17.6,11.7,78,29.96,10.0,Calm,Calm,-,N/A,,Overcast,0,2014-02-13 13:54:00
9:14 AM,19.2,11.5,72,29.95,10.0,Calm,Calm,-,N/A,,Overcast,0,2014-02-13 14:14:00
9:34 AM,19.4,13.1,76,29.93,10.0,Calm,Calm,-,N/A,,Overcast,0,2014-02-13 14:34:00
9:54 AM,21.9,14.0,72,29.92,10.0,ESE,8.1,-,N/A,,Overcast,110,2014-02-13 14:54:00
10:14 AM,24.4,12.2,60,29.92,10.0,ESE,10.4,-,N/A,,Overcast,120,2014-02-13 15:14:00
10:34 AM,24.4,16.7,72,29.91,10.0,ESE,8.1,-,N/A,,Overcast,120,2014-02-13 15:34:00
10:54 AM,24.4,14.9,67,29.90,10.0,ESE,11.5,-,N/A,,Overcast,120,2014-02-13 15:54:00
11:14 AM,24.4,15.8,70,29.90,10.0,ESE,8.1,-,N/A,,Overcast,120,2014-02-13 16:14:00
11:34 AM,24.6,15.8,69,29.90,10.0,SE,9.2,-,N/A,,Overcast,130,2014-02-13 16:34:00
11:54 AM,24.4,15.8,70,29.89,10.0,SE,9.2,-,N/A,,Overcast,140,2014-02-13 16:54:00
12:14 PM,24.4,14.9,67,29.88,10.0,SE,8.1,16.1,N/A,,Overcast,130,2014-02-13 17:14:00
12:34 PM,24.4,14.9,67,29.86,10.0,SE,5.8,-,N/A,,Overcast,140,2014-02-13 17:34:00
12:54 PM,24.4,14.9,67,29.83,10.0,SE,13.8,-,N/A,,Overcast,130,2014-02-13 17:54:00
1:14 PM,24.6,14.9,67,29.82,7.0,SE,6.9,-,N/A,,Overcast,130,2014-02-13 18:14:00
1:34 PM,24.6,12.2,59,29.82,10.0,SE,10.4,-,N/A,,Overcast,130,2014-02-13 18:34:00
1:54 PM,24.8,12.7,60,29.80,10.0,SSE,6.9,-,N/A,,Overcast,150,2014-02-13 18:54:00
2:34 PM,25.7,10.8,53,29.76,10.0,SE,6.9,-,N/A,,Overcast,140,2014-02-13 19:34:00
2:54 PM,25.5,11.8,56,29.75,10.0,ESE,6.9,-,N/A,,Overcast,110,2014-02-13 19:54:00
3:14 PM,25.3,11.1,55,29.74,10.0,ESE,6.9,-,N/A,,Overcast,120,2014-02-13 20:14:00
3:35 PM,25.3,11.8,57,29.73,10.0,ESE,5.8,-,N/A,,Overcast,120,2014-02-13 20:35:00
3:54 PM,25.2,11.3,56,29.72,10.0,ESE,5.8,-,N/A,,Overcast,120,2014-02-13 20:54:00
4:14 PM,25.3,11.3,55,29.72,10.0,SE,5.8,-,N/A,,Overcast,130,2014-02-13 21:14:00
4:34 PM,25.7,11.8,56,29.71,10.0,ESE,4.6,-,N/A,,Overcast,120,2014-02-13 21:34:00
4:54 PM,25.5,12.9,59,29.71,10.0,ESE,6.9,-,N/A,,Overcast,120,2014-02-13 21:54:00
5:14 PM,25.3,12.6,58,29.70,10.0,ESE,4.6,-,N/A,,Overcast,120,2014-02-13 22:14:00
5:34 PM,25.3,13.1,60,29.68,10.0,ESE,4.6,-,N/A,,Overcast,110,2014-02-13 22:34:00
5:54 PM,25.3,14.0,62,29.66,10.0,ESE,6.9,-,N/A,,Overcast,110,2014-02-13 22:54:00
6:14 PM,25.3,15.6,67,29.65,10.0,ESE,6.9,-,N/A,,Overcast,110,2014-02-13 23:14:00
6:34 PM,25.3,16.2,68,29.64,10.0,ESE,8.1,-,N/A,,Overcast,120,2014-02-13 23:34:00
6:54 PM,25.3,16.0,68,29.63,10.0,ESE,9.2,-,N/A,,Overcast,120,2014-02-13 23:54:00
7:14 PM,25.2,16.7,70,29.62,10.0,ESE,6.9,-,N/A,,Overcast,120,2014-02-14 00:14:00
7:34 PM,25.3,16.9,70,29.61,10.0,SE,5.8,-,N/A,,Overcast,140,2014-02-14 00:34:00
7:54 PM,25.3,16.5,69,29.61,10.0,SE,6.9,-,N/A,,Overcast,130,2014-02-14 00:54:00
8:14 PM,25.2,16.2,69,29.60,10.0,SSE,6.9,-,N/A,,Overcast,150,2014-02-14 01:14:00
8:34 PM,25.0,16.5,70,29.60,10.0,SSE,4.6,-,N/A,,Overcast,150,2014-02-14 01:34:00
8:54 PM,24.6,16.7,72,29.59,10.0,SE,4.6,-,N/A,,Overcast,140,2014-02-14 01:54:00
9:14 PM,24.8,17.1,72,29.58,10.0,SE,3.5,-,N/A,,Overcast,140,2014-02-14 02:14:00
9:34 PM,24.6,16.7,72,29.57,10.0,SSE,4.6,-,N/A,,Overcast,150,2014-02-14 02:34:00
9:54 PM,25.0,16.7,71,29.57,7.0,SSE,6.9,-,N/A,Snow,Light Snow,150,2014-02-14 02:54:00
10:14 PM,23.9,20.1,85,29.55,2.0,SSE,5.8,-,N/A,Snow,Light Snow,160,2014-02-14 03:14:00
10:34 PM,23.5,21.0,90,29.55,2.0,South,4.6,-,N/A,Snow,Light Snow,170,2014-02-14 03:34:00
10:54 PM,23.7,21.2,90,29.54,1.8,Calm,Calm,-,N/A,Snow,Light Snow,0,2014-02-14 03:54:00
11:14 PM,23.7,21.7,92,29.52,2.5,SE,4.6,-,N/A,Snow,Light Snow,140,2014-02-14 04:14:00
11:34 PM,23.9,21.7,91,29.51,1.8,SSE,5.8,-,N/A,Snow,Light Snow,160,2014-02-14 04:34:00
11:54 PM,23.7,21.6,91,29.50,3.0,SSE,3.5,-,N/A,Snow,Light Snow,150,2014-02-14 04:54:00